sensor_id;sensor_type;location;lat;lon;timestamp;P1;durP1;ratioP1;P2;durP2;ratioP2
70078;SDS011;57451;52.496;13.456;2023-05-10T00:00:27;9.63;;;4.90;;
70078;SDS011;57451;52.496;13.456;2023-05-10T00:02:54;7.53;;;5.05;;
70078;SDS011;57451;52.496;13.456;2023-05-10T00:05:22;8.32;;;4.85;;
70078;SDS011;57451;52.496;13.456;2023-05-10T00:07:49;8.15;;;5.05;;
70078;SDS011;57451;52.496;13.456;2023-05-10T00:10:16;9.15;;;5.03;;
70078;SDS011;57451;52.496;13.456;2023-05-10T00:12:44;9.20;;;5.10;;
70078;SDS011;57451;52.496;13.456;2023-05-10T00:15:11;9.05;;;5.20;;
70078;SDS011;57451;52.496;13.456;2023-05-10T00:17:40;10.20;;;5.28;;
70078;SDS011;57451;52.496;13.456;2023-05-10T00:20:07;10.88;;;5.55;;
70078;SDS011;57451;52.496;13.456;2023-05-10T00:22:35;8.55;;;5.28;;
70078;SDS011;57451;52.496;13.456;2023-05-10T00:25:03;8.40;;;5.43;;
70078;SDS011;57451;52.496;13.456;2023-05-10T00:27:31;11.63;;;5.80;;
70078;SDS011;57451;52.496;13.456;2023-05-10T00:29:59;10.30;;;5.50;;
70078;SDS011;57451;52.496;13.456;2023-05-10T00:32:26;7.93;;;5.35;;
70078;SDS011;57451;52.496;13.456;2023-05-10T00:34:56;11.38;;;5.80;;
70078;SDS011;57451;52.496;13.456;2023-05-10T00:37:23;8.30;;;5.50;;
70078;SDS011;57451;52.496;13.456;2023-05-10T00:39:50;9.45;;;5.63;;
70078;SDS011;57451;52.496;13.456;2023-05-10T00:42:18;7.75;;;5.35;;
70078;SDS011;57451;52.496;13.456;2023-05-10T00:44:45;9.80;;;5.53;;
70078;SDS011;57451;52.496;13.456;2023-05-10T00:47:13;9.88;;;5.63;;
70078;SDS011;57451;52.496;13.456;2023-05-10T00:49:40;9.43;;;5.33;;
70078;SDS011;57451;52.496;13.456;2023-05-10T00:52:09;9.45;;;5.25;;
70078;SDS011;57451;52.496;13.456;2023-05-10T00:54:37;8.38;;;5.55;;
70078;SDS011;57451;52.496;13.456;2023-05-10T00:57:04;7.85;;;4.93;;
70078;SDS011;57451;52.496;13.456;2023-05-10T00:59:31;10.13;;;6.18;;
70078;SDS011;57451;52.496;13.456;2023-05-10T01:01:59;8.10;;;4.70;;
70078;SDS011;57451;52.496;13.456;2023-05-10T01:04:26;9.07;;;5.40;;
70078;SDS011;57451;52.496;13.456;2023-05-10T01:06:54;8.73;;;5.57;;
70078;SDS011;57451;52.496;13.456;2023-05-10T01:09:23;8.35;;;5.47;;
70078;SDS011;57451;52.496;13.456;2023-05-10T01:11:53;7.93;;;5.50;;
70078;SDS011;57451;52.496;13.456;2023-05-10T01:14:21;10.80;;;5.70;;
70078;SDS011;57451;52.496;13.456;2023-05-10T01:16:49;10.88;;;5.15;;
70078;SDS011;57451;52.496;13.456;2023-05-10T01:19:18;9.75;;;5.45;;
70078;SDS011;57451;52.496;13.456;2023-05-10T01:21:49;7.80;;;5.20;;
70078;SDS011;57451;52.496;13.456;2023-05-10T01:27:16;8.73;;;5.43;;
70078;SDS011;57451;52.496;13.456;2023-05-10T01:30:07;8.23;;;5.15;;
70078;SDS011;57451;52.496;13.456;2023-05-10T01:32:50;8.25;;;4.88;;
70078;SDS011;57451;52.496;13.456;2023-05-10T01:35:23;9.77;;;5.93;;
70078;SDS011;57451;52.496;13.456;2023-05-10T01:37:59;9.68;;;4.97;;
70078;SDS011;57451;52.496;13.456;2023-05-10T01:40:35;8.43;;;4.93;;
70078;SDS011;57451;52.496;13.456;2023-05-10T01:43:08;7.72;;;5.30;;
70078;SDS011;57451;52.496;13.456;2023-05-10T01:45:45;8.68;;;5.53;;
70078;SDS011;57451;52.496;13.456;2023-05-10T01:48:18;7.97;;;5.18;;
70078;SDS011;57451;52.496;13.456;2023-05-10T01:50:47;7.65;;;5.45;;
70078;SDS011;57451;52.496;13.456;2023-05-10T01:53:17;7.60;;;4.70;;
70078;SDS011;57451;52.496;13.456;2023-05-10T01:55:47;8.85;;;5.30;;
70078;SDS011;57451;52.496;13.456;2023-05-10T01:58:18;9.70;;;5.75;;
70078;SDS011;57451;52.496;13.456;2023-05-10T02:00:49;7.78;;;5.00;;
70078;SDS011;57451;52.496;13.456;2023-05-10T02:03:21;10.20;;;5.28;;
70078;SDS011;57451;52.496;13.456;2023-05-10T02:05:50;9.70;;;5.50;;
70078;SDS011;57451;52.496;13.456;2023-05-10T02:08:21;8.32;;;5.68;;
70078;SDS011;57451;52.496;13.456;2023-05-10T02:10:49;9.07;;;5.20;;
70078;SDS011;57451;52.496;13.456;2023-05-10T02:13:19;8.25;;;5.38;;
70078;SDS011;57451;52.496;13.456;2023-05-10T02:15:47;8.73;;;4.95;;
70078;SDS011;57451;52.496;13.456;2023-05-10T02:18:16;8.77;;;5.30;;
70078;SDS011;57451;52.496;13.456;2023-05-10T02:20:46;8.05;;;5.13;;
70078;SDS011;57451;52.496;13.456;2023-05-10T02:23:15;7.28;;;5.10;;
70078;SDS011;57451;52.496;13.456;2023-05-10T02:25:44;9.02;;;4.95;;
70078;SDS011;57451;52.496;13.456;2023-05-10T02:28:14;9.43;;;5.22;;
70078;SDS011;57451;52.496;13.456;2023-05-10T02:30:42;8.53;;;5.00;;
70078;SDS011;57451;52.496;13.456;2023-05-10T02:33:10;8.52;;;4.80;;
70078;SDS011;57451;52.496;13.456;2023-05-10T02:35:38;8.30;;;4.88;;
70078;SDS011;57451;52.496;13.456;2023-05-10T02:38:09;9.40;;;5.18;;
70078;SDS011;57451;52.496;13.456;2023-05-10T02:40:38;8.75;;;4.70;;
70078;SDS011;57451;52.496;13.456;2023-05-10T02:43:09;9.80;;;5.60;;
70078;SDS011;57451;52.496;13.456;2023-05-10T02:45:38;9.05;;;4.78;;
70078;SDS011;57451;52.496;13.456;2023-05-10T02:48:06;8.32;;;4.97;;
70078;SDS011;57451;52.496;13.456;2023-05-10T02:50:34;8.27;;;5.00;;
70078;SDS011;57451;52.496;13.456;2023-05-10T02:53:06;8.20;;;5.00;;
70078;SDS011;57451;52.496;13.456;2023-05-10T02:55:41;8.27;;;4.77;;
70078;SDS011;57451;52.496;13.456;2023-05-10T02:58:11;7.82;;;4.95;;
70078;SDS011;57451;52.496;13.456;2023-05-10T03:00:39;9.07;;;4.97;;
70078;SDS011;57451;52.496;13.456;2023-05-10T03:03:07;9.20;;;4.85;;
70078;SDS011;57451;52.496;13.456;2023-05-10T03:05:34;9.27;;;4.75;;
70078;SDS011;57451;52.496;13.456;2023-05-10T03:08:03;9.27;;;4.70;;
70078;SDS011;57451;52.496;13.456;2023-05-10T03:10:32;9.20;;;4.97;;
70078;SDS011;57451;52.496;13.456;2023-05-10T03:13:06;8.13;;;4.85;;
70078;SDS011;57451;52.496;13.456;2023-05-10T03:15:42;9.52;;;4.63;;
70078;SDS011;57451;52.496;13.456;2023-05-10T03:18:16;8.27;;;4.60;;
70078;SDS011;57451;52.496;13.456;2023-05-10T03:20:48;8.47;;;4.63;;
70078;SDS011;57451;52.496;13.456;2023-05-10T03:23:21;7.90;;;4.82;;
70078;SDS011;57451;52.496;13.456;2023-05-10T03:25:54;9.13;;;5.07;;
70078;SDS011;57451;52.496;13.456;2023-05-10T03:28:21;8.38;;;5.03;;
70078;SDS011;57451;52.496;13.456;2023-05-10T03:30:52;8.85;;;5.13;;
70078;SDS011;57451;52.496;13.456;2023-05-10T03:33:20;7.53;;;4.93;;
70078;SDS011;57451;52.496;13.456;2023-05-10T03:35:49;8.38;;;4.78;;
70078;SDS011;57451;52.496;13.456;2023-05-10T03:38:16;9.55;;;5.05;;
70078;SDS011;57451;52.496;13.456;2023-05-10T03:40:43;8.35;;;5.03;;
70078;SDS011;57451;52.496;13.456;2023-05-10T03:43:12;8.13;;;4.95;;
70078;SDS011;57451;52.496;13.456;2023-05-10T03:45:39;11.97;;;4.53;;
70078;SDS011;57451;52.496;13.456;2023-05-10T03:48:06;9.30;;;4.80;;
70078;SDS011;57451;52.496;13.456;2023-05-10T03:50:33;9.68;;;4.82;;
70078;SDS011;57451;52.496;13.456;2023-05-10T03:53:01;7.85;;;4.38;;
70078;SDS011;57451;52.496;13.456;2023-05-10T03:55:28;9.43;;;4.50;;
70078;SDS011;57451;52.496;13.456;2023-05-10T03:57:56;7.50;;;4.30;;
70078;SDS011;57451;52.496;13.456;2023-05-10T04:00:27;7.88;;;4.35;;
70078;SDS011;57451;52.496;13.456;2023-05-10T04:02:55;9.13;;;5.13;;
70078;SDS011;57451;52.496;13.456;2023-05-10T04:05:22;7.78;;;4.80;;
70078;SDS011;57451;52.496;13.456;2023-05-10T04:07:51;11.30;;;4.78;;
70078;SDS011;57451;52.496;13.456;2023-05-10T04:10:19;9.00;;;4.67;;
70078;SDS011;57451;52.496;13.456;2023-05-10T04:12:47;7.25;;;4.47;;
70078;SDS011;57451;52.496;13.456;2023-05-10T04:15:14;10.02;;;5.05;;
70078;SDS011;57451;52.496;13.456;2023-05-10T04:17:43;9.07;;;4.70;;
70078;SDS011;57451;52.496;13.456;2023-05-10T04:20:11;7.30;;;4.82;;
70078;SDS011;57451;52.496;13.456;2023-05-10T04:22:39;9.20;;;4.47;;
70078;SDS011;57451;52.496;13.456;2023-05-10T04:25:06;8.82;;;4.80;;
70078;SDS011;57451;52.496;13.456;2023-05-10T04:27:34;9.48;;;4.97;;
70078;SDS011;57451;52.496;13.456;2023-05-10T04:30:02;10.45;;;4.90;;
70078;SDS011;57451;52.496;13.456;2023-05-10T04:32:30;8.48;;;4.60;;
70078;SDS011;57451;52.496;13.456;2023-05-10T04:34:59;10.93;;;4.53;;
70078;SDS011;57451;52.496;13.456;2023-05-10T04:37:26;6.70;;;4.43;;
70078;SDS011;57451;52.496;13.456;2023-05-10T04:39:54;9.50;;;5.15;;
70078;SDS011;57451;52.496;13.456;2023-05-10T04:42:21;7.03;;;4.50;;
70078;SDS011;57451;52.496;13.456;2023-05-10T04:44:48;9.00;;;4.55;;
70078;SDS011;57451;52.496;13.456;2023-05-10T04:47:15;7.17;;;4.43;;
70078;SDS011;57451;52.496;13.456;2023-05-10T04:49:43;8.15;;;4.43;;
70078;SDS011;57451;52.496;13.456;2023-05-10T04:52:11;7.78;;;3.83;;
70078;SDS011;57451;52.496;13.456;2023-05-10T04:54:38;7.35;;;4.22;;
70078;SDS011;57451;52.496;13.456;2023-05-10T04:57:05;7.78;;;4.38;;
70078;SDS011;57451;52.496;13.456;2023-05-10T04:59:33;9.23;;;4.20;;
70078;SDS011;57451;52.496;13.456;2023-05-10T05:02:02;8.85;;;4.45;;
70078;SDS011;57451;52.496;13.456;2023-05-10T05:04:30;11.98;;;4.35;;
70078;SDS011;57451;52.496;13.456;2023-05-10T05:06:58;10.02;;;3.88;;
70078;SDS011;57451;52.496;13.456;2023-05-10T05:09:26;7.55;;;4.28;;
70078;SDS011;57451;52.496;13.456;2023-05-10T05:11:53;7.43;;;4.07;;
70078;SDS011;57451;52.496;13.456;2023-05-10T05:14:20;6.85;;;3.80;;
70078;SDS011;57451;52.496;13.456;2023-05-10T05:16:48;8.18;;;4.07;;
70078;SDS011;57451;52.496;13.456;2023-05-10T05:19:15;9.55;;;3.40;;
70078;SDS011;57451;52.496;13.456;2023-05-10T05:21:43;7.82;;;3.88;;
70078;SDS011;57451;52.496;13.456;2023-05-10T05:24:10;7.37;;;3.90;;
70078;SDS011;57451;52.496;13.456;2023-05-10T05:26:40;9.10;;;4.05;;
70078;SDS011;57451;52.496;13.456;2023-05-10T05:29:08;8.05;;;3.45;;
70078;SDS011;57451;52.496;13.456;2023-05-10T05:31:35;8.02;;;3.90;;
70078;SDS011;57451;52.496;13.456;2023-05-10T05:34:02;6.47;;;3.55;;
70078;SDS011;57451;52.496;13.456;2023-05-10T05:36:30;5.93;;;3.50;;
70078;SDS011;57451;52.496;13.456;2023-05-10T05:38:58;6.93;;;3.58;;
70078;SDS011;57451;52.496;13.456;2023-05-10T05:41:25;7.25;;;3.63;;
70078;SDS011;57451;52.496;13.456;2023-05-10T05:43:53;8.70;;;3.70;;
70078;SDS011;57451;52.496;13.456;2023-05-10T05:46:21;7.78;;;3.60;;
70078;SDS011;57451;52.496;13.456;2023-05-10T05:48:48;7.47;;;3.70;;
70078;SDS011;57451;52.496;13.456;2023-05-10T05:51:15;5.97;;;3.13;;
70078;SDS011;57451;52.496;13.456;2023-05-10T05:53:43;7.05;;;3.35;;
70078;SDS011;57451;52.496;13.456;2023-05-10T05:56:10;7.82;;;3.75;;
70078;SDS011;57451;52.496;13.456;2023-05-10T05:58:37;7.20;;;3.38;;
70078;SDS011;57451;52.496;13.456;2023-05-10T06:01:05;5.83;;;3.17;;
70078;SDS011;57451;52.496;13.456;2023-05-10T06:03:33;6.85;;;2.80;;
70078;SDS011;57451;52.496;13.456;2023-05-10T06:06:00;5.70;;;2.80;;
70078;SDS011;57451;52.496;13.456;2023-05-10T06:08:27;5.72;;;3.15;;
70078;SDS011;57451;52.496;13.456;2023-05-10T06:10:54;4.88;;;2.60;;
70078;SDS011;57451;52.496;13.456;2023-05-10T06:13:22;7.70;;;2.80;;
70078;SDS011;57451;52.496;13.456;2023-05-10T06:15:49;7.10;;;2.90;;
70078;SDS011;57451;52.496;13.456;2023-05-10T06:18:17;6.53;;;2.90;;
70078;SDS011;57451;52.496;13.456;2023-05-10T06:20:45;6.95;;;3.22;;
70078;SDS011;57451;52.496;13.456;2023-05-10T06:23:12;6.18;;;3.00;;
70078;SDS011;57451;52.496;13.456;2023-05-10T06:25:39;6.50;;;2.80;;
70078;SDS011;57451;52.496;13.456;2023-05-10T06:28:06;6.00;;;2.70;;
70078;SDS011;57451;52.496;13.456;2023-05-10T06:30:35;7.97;;;3.17;;
70078;SDS011;57451;52.496;13.456;2023-05-10T06:33:02;7.20;;;3.13;;
70078;SDS011;57451;52.496;13.456;2023-05-10T06:35:31;7.28;;;2.90;;
70078;SDS011;57451;52.496;13.456;2023-05-10T06:38:00;7.30;;;2.50;;
70078;SDS011;57451;52.496;13.456;2023-05-10T06:40:27;5.43;;;2.63;;
70078;SDS011;57451;52.496;13.456;2023-05-10T06:42:54;7.88;;;3.08;;
70078;SDS011;57451;52.496;13.456;2023-05-10T06:45:21;5.95;;;2.83;;
70078;SDS011;57451;52.496;13.456;2023-05-10T06:47:48;6.30;;;2.97;;
70078;SDS011;57451;52.496;13.456;2023-05-10T06:50:16;9.77;;;2.87;;
70078;SDS011;57451;52.496;13.456;2023-05-10T06:52:44;7.78;;;3.00;;
70078;SDS011;57451;52.496;13.456;2023-05-10T06:55:11;11.48;;;2.75;;
70078;SDS011;57451;52.496;13.456;2023-05-10T06:57:39;5.88;;;2.90;;
70078;SDS011;57451;52.496;13.456;2023-05-10T07:00:06;8.40;;;2.90;;
70078;SDS011;57451;52.496;13.456;2023-05-10T07:02:36;5.63;;;2.73;;
70078;SDS011;57451;52.496;13.456;2023-05-10T07:05:03;5.65;;;2.80;;
70078;SDS011;57451;52.496;13.456;2023-05-10T07:07:31;6.63;;;2.47;;
70078;SDS011;57451;52.496;13.456;2023-05-10T07:10:00;6.97;;;2.50;;
70078;SDS011;57451;52.496;13.456;2023-05-10T07:12:27;6.00;;;2.85;;
70078;SDS011;57451;52.496;13.456;2023-05-10T07:14:54;6.83;;;2.80;;
70078;SDS011;57451;52.496;13.456;2023-05-10T07:17:22;7.90;;;2.75;;
70078;SDS011;57451;52.496;13.456;2023-05-10T07:19:49;5.47;;;2.53;;
70078;SDS011;57451;52.496;13.456;2023-05-10T07:22:16;6.75;;;2.90;;
70078;SDS011;57451;52.496;13.456;2023-05-10T07:24:44;5.43;;;2.55;;
70078;SDS011;57451;52.496;13.456;2023-05-10T07:27:13;5.90;;;2.63;;
70078;SDS011;57451;52.496;13.456;2023-05-10T07:29:40;6.55;;;2.70;;
70078;SDS011;57451;52.496;13.456;2023-05-10T07:32:07;7.97;;;3.03;;
70078;SDS011;57451;52.496;13.456;2023-05-10T07:34:35;5.88;;;2.60;;
70078;SDS011;57451;52.496;13.456;2023-05-10T07:37:02;7.10;;;2.78;;
70078;SDS011;57451;52.496;13.456;2023-05-10T07:39:29;4.73;;;2.40;;
70078;SDS011;57451;52.496;13.456;2023-05-10T07:41:56;6.82;;;3.00;;
70078;SDS011;57451;52.496;13.456;2023-05-10T07:44:25;6.03;;;2.90;;
70078;SDS011;57451;52.496;13.456;2023-05-10T07:46:52;4.88;;;2.80;;
70078;SDS011;57451;52.496;13.456;2023-05-10T07:49:20;6.38;;;2.90;;
70078;SDS011;57451;52.496;13.456;2023-05-10T07:51:47;4.43;;;2.40;;
70078;SDS011;57451;52.496;13.456;2023-05-10T07:54:14;7.65;;;2.60;;
70078;SDS011;57451;52.496;13.456;2023-05-10T07:56:41;5.30;;;2.33;;
70078;SDS011;57451;52.496;13.456;2023-05-10T07:59:14;5.18;;;2.80;;
70078;SDS011;57451;52.496;13.456;2023-05-10T08:01:44;7.30;;;3.03;;
70078;SDS011;57451;52.496;13.456;2023-05-10T08:04:11;6.03;;;2.70;;
70078;SDS011;57451;52.496;13.456;2023-05-10T08:06:39;5.63;;;2.60;;
70078;SDS011;57451;52.496;13.456;2023-05-10T08:09:08;7.57;;;2.80;;
70078;SDS011;57451;52.496;13.456;2023-05-10T08:11:36;5.22;;;2.53;;
70078;SDS011;57451;52.496;13.456;2023-05-10T08:14:03;5.45;;;2.75;;
70078;SDS011;57451;52.496;13.456;2023-05-10T08:16:30;4.93;;;2.53;;
70078;SDS011;57451;52.496;13.456;2023-05-10T08:19:00;5.25;;;2.58;;
70078;SDS011;57451;52.496;13.456;2023-05-10T08:21:28;4.93;;;2.85;;
70078;SDS011;57451;52.496;13.456;2023-05-10T08:23:56;5.63;;;2.72;;
70078;SDS011;57451;52.496;13.456;2023-05-10T08:26:23;4.85;;;2.50;;
70078;SDS011;57451;52.496;13.456;2023-05-10T08:28:50;7.60;;;2.70;;
70078;SDS011;57451;52.496;13.456;2023-05-10T08:31:18;5.95;;;2.80;;
70078;SDS011;57451;52.496;13.456;2023-05-10T08:33:45;6.20;;;2.90;;
70078;SDS011;57451;52.496;13.456;2023-05-10T08:36:14;5.10;;;3.00;;
70078;SDS011;57451;52.496;13.456;2023-05-10T08:38:46;5.18;;;2.80;;
70078;SDS011;57451;52.496;13.456;2023-05-10T08:41:15;5.30;;;2.90;;
70078;SDS011;57451;52.496;13.456;2023-05-10T08:43:43;5.65;;;2.70;;
70078;SDS011;57451;52.496;13.456;2023-05-10T08:46:13;5.47;;;2.97;;
70078;SDS011;57451;52.496;13.456;2023-05-10T08:48:44;5.85;;;2.78;;
70078;SDS011;57451;52.496;13.456;2023-05-10T08:51:14;6.30;;;2.92;;
70078;SDS011;57451;52.496;13.456;2023-05-10T08:53:44;6.33;;;3.10;;
70078;SDS011;57451;52.496;13.456;2023-05-10T08:56:11;7.47;;;3.10;;
70078;SDS011;57451;52.496;13.456;2023-05-10T08:58:39;6.75;;;2.90;;
70078;SDS011;57451;52.496;13.456;2023-05-10T09:01:06;5.28;;;2.83;;
70078;SDS011;57451;52.496;13.456;2023-05-10T09:03:35;6.40;;;2.83;;
70078;SDS011;57451;52.496;13.456;2023-05-10T09:06:05;4.80;;;2.40;;
70078;SDS011;57451;52.496;13.456;2023-05-10T09:08:34;7.38;;;2.80;;
70078;SDS011;57451;52.496;13.456;2023-05-10T09:11:04;6.50;;;2.83;;
70078;SDS011;57451;52.496;13.456;2023-05-10T09:13:32;6.95;;;2.88;;
70078;SDS011;57451;52.496;13.456;2023-05-10T09:16:00;5.97;;;3.03;;
70078;SDS011;57451;52.496;13.456;2023-05-10T09:18:39;5.27;;;2.90;;
70078;SDS011;57451;52.496;13.456;2023-05-10T09:21:06;5.55;;;3.00;;
70078;SDS011;57451;52.496;13.456;2023-05-10T09:23:35;6.38;;;2.95;;
70078;SDS011;57451;52.496;13.456;2023-05-10T09:26:03;5.55;;;2.80;;
70078;SDS011;57451;52.496;13.456;2023-05-10T09:28:31;5.70;;;2.58;;
70078;SDS011;57451;52.496;13.456;2023-05-10T09:30:59;5.27;;;2.67;;
70078;SDS011;57451;52.496;13.456;2023-05-10T09:33:27;4.38;;;2.53;;
70078;SDS011;57451;52.496;13.456;2023-05-10T09:35:54;7.53;;;2.75;;
70078;SDS011;57451;52.496;13.456;2023-05-10T09:38:21;6.20;;;2.75;;
70078;SDS011;57451;52.496;13.456;2023-05-10T09:40:53;5.88;;;2.75;;
70078;SDS011;57451;52.496;13.456;2023-05-10T09:43:21;5.87;;;2.50;;
70078;SDS011;57451;52.496;13.456;2023-05-10T09:45:48;5.00;;;2.90;;
70078;SDS011;57451;52.496;13.456;2023-05-10T09:48:21;5.75;;;2.75;;
70078;SDS011;57451;52.496;13.456;2023-05-10T09:50:56;5.93;;;2.70;;
70078;SDS011;57451;52.496;13.456;2023-05-10T09:53:23;5.00;;;2.50;;
70078;SDS011;57451;52.496;13.456;2023-05-10T09:55:51;5.47;;;2.67;;
70078;SDS011;57451;52.496;13.456;2023-05-10T09:58:19;4.50;;;2.33;;
70078;SDS011;57451;52.496;13.456;2023-05-10T10:00:47;6.50;;;3.03;;
70078;SDS011;57451;52.496;13.456;2023-05-10T10:03:19;6.47;;;2.83;;
70078;SDS011;57451;52.496;13.456;2023-05-10T10:05:48;6.10;;;2.80;;
70078;SDS011;57451;52.496;13.456;2023-05-10T10:08:16;5.47;;;2.60;;
70078;SDS011;57451;52.496;13.456;2023-05-10T10:10:44;5.95;;;2.90;;
70078;SDS011;57451;52.496;13.456;2023-05-10T10:13:13;5.80;;;2.83;;
70078;SDS011;57451;52.496;13.456;2023-05-10T10:15:42;6.70;;;3.33;;
70078;SDS011;57451;52.496;13.456;2023-05-10T10:18:12;6.10;;;3.10;;
70078;SDS011;57451;52.496;13.456;2023-05-10T10:20:40;5.87;;;3.10;;
70078;SDS011;57451;52.496;13.456;2023-05-10T10:23:07;6.93;;;3.03;;
70078;SDS011;57451;52.496;13.456;2023-05-10T10:25:35;4.85;;;2.70;;
70078;SDS011;57451;52.496;13.456;2023-05-10T10:28:06;5.43;;;2.30;;
70078;SDS011;57451;52.496;13.456;2023-05-10T10:30:45;5.50;;;2.45;;
70078;SDS011;57451;52.496;13.456;2023-05-10T10:33:26;11.80;;;2.97;;
70078;SDS011;57451;52.496;13.456;2023-05-10T10:36:01;5.45;;;2.60;;
70078;SDS011;57451;52.496;13.456;2023-05-10T10:38:36;5.70;;;2.80;;
70078;SDS011;57451;52.496;13.456;2023-05-10T10:41:09;5.38;;;2.85;;
70078;SDS011;57451;52.496;13.456;2023-05-10T10:43:38;4.40;;;2.60;;
70078;SDS011;57451;52.496;13.456;2023-05-10T10:46:11;5.23;;;3.00;;
70078;SDS011;57451;52.496;13.456;2023-05-10T10:48:47;4.57;;;2.72;;
70078;SDS011;57451;52.496;13.456;2023-05-10T10:51:15;5.22;;;2.80;;
70078;SDS011;57451;52.496;13.456;2023-05-10T10:53:42;6.65;;;3.05;;
70078;SDS011;57451;52.496;13.456;2023-05-10T10:56:10;6.32;;;2.85;;
70078;SDS011;57451;52.496;13.456;2023-05-10T10:58:40;5.93;;;3.00;;
70078;SDS011;57451;52.496;13.456;2023-05-10T11:01:13;4.88;;;2.47;;
70078;SDS011;57451;52.496;13.456;2023-05-10T11:03:54;6.60;;;3.22;;
70078;SDS011;57451;52.496;13.456;2023-05-10T11:06:37;6.55;;;2.78;;
70078;SDS011;57451;52.496;13.456;2023-05-10T11:09:05;7.40;;;3.00;;
70078;SDS011;57451;52.496;13.456;2023-05-10T11:11:34;6.03;;;3.17;;
70078;SDS011;57451;52.496;13.456;2023-05-10T11:14:02;4.60;;;2.80;;
70078;SDS011;57451;52.496;13.456;2023-05-10T11:16:41;4.90;;;2.65;;
70078;SDS011;57451;52.496;13.456;2023-05-10T11:19:10;6.97;;;3.03;;
70078;SDS011;57451;52.496;13.456;2023-05-10T11:21:44;6.18;;;2.95;;
70078;SDS011;57451;52.496;13.456;2023-05-10T11:24:13;4.37;;;2.80;;
70078;SDS011;57451;52.496;13.456;2023-05-10T11:26:41;5.13;;;2.60;;
70078;SDS011;57451;52.496;13.456;2023-05-10T11:29:09;5.85;;;2.83;;
70078;SDS011;57451;52.496;13.456;2023-05-10T11:31:42;6.53;;;2.80;;
70078;SDS011;57451;52.496;13.456;2023-05-10T11:34:11;5.72;;;2.70;;
70078;SDS011;57451;52.496;13.456;2023-05-10T11:36:39;5.70;;;2.80;;
70078;SDS011;57451;52.496;13.456;2023-05-10T11:39:06;6.57;;;2.85;;
70078;SDS011;57451;52.496;13.456;2023-05-10T11:41:34;7.55;;;3.03;;
70078;SDS011;57451;52.496;13.456;2023-05-10T11:44:02;7.13;;;2.90;;
70078;SDS011;57451;52.496;13.456;2023-05-10T11:46:29;6.60;;;2.88;;
70078;SDS011;57451;52.496;13.456;2023-05-10T11:48:59;4.57;;;2.67;;
70078;SDS011;57451;52.496;13.456;2023-05-10T11:51:33;9.02;;;3.40;;
70078;SDS011;57451;52.496;13.456;2023-05-10T11:54:05;6.22;;;2.70;;
70078;SDS011;57451;52.496;13.456;2023-05-10T11:56:33;8.00;;;2.38;;
70078;SDS011;57451;52.496;13.456;2023-05-10T11:59:01;5.53;;;2.50;;
70078;SDS011;57451;52.496;13.456;2023-05-10T12:01:29;5.57;;;2.70;;
70078;SDS011;57451;52.496;13.456;2023-05-10T12:03:57;9.90;;;2.90;;
70078;SDS011;57451;52.496;13.456;2023-05-10T12:06:28;7.57;;;2.45;;
70078;SDS011;57451;52.496;13.456;2023-05-10T12:08:56;6.55;;;2.67;;
70078;SDS011;57451;52.496;13.456;2023-05-10T12:11:24;5.63;;;2.80;;
70078;SDS011;57451;52.496;13.456;2023-05-10T12:13:52;5.93;;;2.53;;
70078;SDS011;57451;52.496;13.456;2023-05-10T12:16:21;8.00;;;2.72;;
70078;SDS011;57451;52.496;13.456;2023-05-10T12:18:50;4.45;;;2.40;;
70078;SDS011;57451;52.496;13.456;2023-05-10T12:21:19;4.75;;;2.80;;
70078;SDS011;57451;52.496;13.456;2023-05-10T12:23:48;5.53;;;2.90;;
70078;SDS011;57451;52.496;13.456;2023-05-10T12:26:16;6.13;;;2.97;;
70078;SDS011;57451;52.496;13.456;2023-05-10T12:28:44;6.97;;;3.20;;
70078;SDS011;57451;52.496;13.456;2023-05-10T12:31:11;5.95;;;2.85;;
70078;SDS011;57451;52.496;13.456;2023-05-10T12:33:39;5.68;;;2.75;;
70078;SDS011;57451;52.496;13.456;2023-05-10T12:36:09;5.28;;;2.80;;
70078;SDS011;57451;52.496;13.456;2023-05-10T12:38:39;5.80;;;2.90;;
70078;SDS011;57451;52.496;13.456;2023-05-10T12:41:14;5.32;;;2.70;;
70078;SDS011;57451;52.496;13.456;2023-05-10T12:43:42;5.45;;;2.85;;
70078;SDS011;57451;52.496;13.456;2023-05-10T12:46:10;6.00;;;2.70;;
70078;SDS011;57451;52.496;13.456;2023-05-10T12:48:39;5.68;;;2.78;;
70078;SDS011;57451;52.496;13.456;2023-05-10T12:51:08;7.30;;;2.80;;
70078;SDS011;57451;52.496;13.456;2023-05-10T12:53:41;9.75;;;3.10;;
70078;SDS011;57451;52.496;13.456;2023-05-10T12:56:11;7.22;;;2.88;;
70078;SDS011;57451;52.496;13.456;2023-05-10T12:58:39;5.30;;;2.88;;
70078;SDS011;57451;52.496;13.456;2023-05-10T13:01:06;4.88;;;2.78;;
70078;SDS011;57451;52.496;13.456;2023-05-10T13:03:33;5.23;;;2.77;;
70078;SDS011;57451;52.496;13.456;2023-05-10T13:06:01;8.48;;;2.90;;
70078;SDS011;57451;52.496;13.456;2023-05-10T13:08:28;4.20;;;2.83;;
70078;SDS011;57451;52.496;13.456;2023-05-10T13:11:01;6.90;;;2.80;;
70078;SDS011;57451;52.496;13.456;2023-05-10T13:13:29;5.82;;;2.80;;
70078;SDS011;57451;52.496;13.456;2023-05-10T13:15:56;7.00;;;2.80;;
70078;SDS011;57451;52.496;13.456;2023-05-10T13:18:24;4.38;;;2.47;;
70078;SDS011;57451;52.496;13.456;2023-05-10T13:20:53;6.65;;;2.85;;
70078;SDS011;57451;52.496;13.456;2023-05-10T13:23:20;7.43;;;2.60;;
70078;SDS011;57451;52.496;13.456;2023-05-10T13:25:48;5.65;;;2.70;;
70078;SDS011;57451;52.496;13.456;2023-05-10T13:28:16;4.00;;;2.33;;
70078;SDS011;57451;52.496;13.456;2023-05-10T13:30:43;6.65;;;2.90;;
70078;SDS011;57451;52.496;13.456;2023-05-10T13:33:11;5.75;;;2.80;;
70078;SDS011;57451;52.496;13.456;2023-05-10T13:35:38;6.40;;;2.70;;
70078;SDS011;57451;52.496;13.456;2023-05-10T13:38:05;5.05;;;2.80;;
70078;SDS011;57451;52.496;13.456;2023-05-10T13:40:34;6.43;;;2.60;;
70078;SDS011;57451;52.496;13.456;2023-05-10T13:43:02;5.43;;;2.65;;
70078;SDS011;57451;52.496;13.456;2023-05-10T13:45:31;7.00;;;2.90;;
70078;SDS011;57451;52.496;13.456;2023-05-10T13:47:58;5.47;;;2.80;;
70078;SDS011;57451;52.496;13.456;2023-05-10T13:50:25;7.47;;;3.03;;
70078;SDS011;57451;52.496;13.456;2023-05-10T13:52:53;6.83;;;2.70;;
70078;SDS011;57451;52.496;13.456;2023-05-10T13:55:20;6.32;;;2.60;;
70078;SDS011;57451;52.496;13.456;2023-05-10T13:57:48;5.78;;;2.83;;
70078;SDS011;57451;52.496;13.456;2023-05-10T14:00:15;4.72;;;2.60;;
70078;SDS011;57451;52.496;13.456;2023-05-10T14:02:44;4.55;;;2.65;;
70078;SDS011;57451;52.496;13.456;2023-05-10T14:05:12;6.70;;;2.70;;
70078;SDS011;57451;52.496;13.456;2023-05-10T14:07:39;4.75;;;2.53;;
70078;SDS011;57451;52.496;13.456;2023-05-10T14:10:07;6.35;;;2.78;;
70078;SDS011;57451;52.496;13.456;2023-05-10T14:12:35;5.15;;;2.65;;
70078;SDS011;57451;52.496;13.456;2023-05-10T14:15:03;4.53;;;2.70;;
70078;SDS011;57451;52.496;13.456;2023-05-10T14:17:33;4.43;;;2.80;;
70078;SDS011;57451;52.496;13.456;2023-05-10T14:20:01;4.20;;;2.40;;
70078;SDS011;57451;52.496;13.456;2023-05-10T14:22:30;5.15;;;2.45;;
70078;SDS011;57451;52.496;13.456;2023-05-10T14:24:57;5.03;;;2.65;;
70078;SDS011;57451;52.496;13.456;2023-05-10T14:27:25;5.60;;;2.80;;
70078;SDS011;57451;52.496;13.456;2023-05-10T14:29:52;5.93;;;2.83;;
70078;SDS011;57451;52.496;13.456;2023-05-10T14:32:20;5.68;;;2.60;;
70078;SDS011;57451;52.496;13.456;2023-05-10T14:34:47;4.22;;;2.65;;
70078;SDS011;57451;52.496;13.456;2023-05-10T14:37:16;4.95;;;2.65;;
70078;SDS011;57451;52.496;13.456;2023-05-10T14:39:43;6.13;;;2.83;;
70078;SDS011;57451;52.496;13.456;2023-05-10T14:42:11;4.97;;;2.60;;
70078;SDS011;57451;52.496;13.456;2023-05-10T14:44:38;4.10;;;2.45;;